sensor_id;sensor_type;location;lat;lon;timestamp;temperature;humidity
7958;DHT22;4024;52.172;5.378;2023-09-07T00:01:23;23.20;99.90
7958;DHT22;4024;52.172;5.378;2023-09-07T00:03:49;23.20;99.90
7958;DHT22;4024;52.172;5.378;2023-09-07T00:06:15;23.10;99.90
7958;DHT22;4024;52.172;5.378;2023-09-07T00:08:41;23.10;99.90
7958;DHT22;4024;52.172;5.378;2023-09-07T00:11:06;23.10;99.90
7958;DHT22;4024;52.172;5.378;2023-09-07T00:13:33;23.00;99.90
7958;DHT22;4024;52.172;5.378;2023-09-07T00:16:03;23.00;99.90
7958;DHT22;4024;52.172;5.378;2023-09-07T00:18:30;23.00;99.90
7958;DHT22;4024;52.172;5.378;2023-09-07T00:20:56;23.00;99.90
7958;DHT22;4024;52.172;5.378;2023-09-07T00:23:21;22.90;99.90
7958;DHT22;4024;52.172;5.378;2023-09-07T00:25:47;22.90;99.90
7958;DHT22;4024;52.172;5.378;2023-09-07T00:28:13;22.90;99.90
7958;DHT22;4024;52.172;5.378;2023-09-07T00:30:39;22.80;99.90
7958;DHT22;4024;52.172;5.378;2023-09-07T00:33:05;22.80;99.90
7958;DHT22;4024;52.172;5.378;2023-09-07T00:35:31;22.80;99.90
7958;DHT22;4024;52.172;5.378;2023-09-07T00:37:57;22.80;99.90
7958;DHT22;4024;52.172;5.378;2023-09-07T00:40:22;22.80;99.90
7958;DHT22;4024;52.172;5.378;2023-09-07T00:42:48;22.70;99.90
7958;DHT22;4024;52.172;5.378;2023-09-07T00:45:15;22.70;99.90
7958;DHT22;4024;52.172;5.378;2023-09-07T00:47:40;22.70;99.90
7958;DHT22;4024;52.172;5.378;2023-09-07T00:50:06;22.70;99.90
7958;DHT22;4024;52.172;5.378;2023-09-07T00:52:33;22.60;99.90
7958;DHT22;4024;52.172;5.378;2023-09-07T00:55:01;22.60;99.90
7958;DHT22;4024;52.172;5.378;2023-09-07T00:57:27;22.60;99.90
7958;DHT22;4024;52.172;5.378;2023-09-07T00:59:52;22.50;99.90
7958;DHT22;4024;52.172;5.378;2023-09-07T01:02:18;22.50;99.90
7958;DHT22;4024;52.172;5.378;2023-09-07T01:04:43;22.50;99.90
7958;DHT22;4024;52.172;5.378;2023-09-07T01:07:35;22.50;99.90
7958;DHT22;4024;52.172;5.378;2023-09-07T01:10:03;22.50;99.90
7958;DHT22;4024;52.172;5.378;2023-09-07T01:12:29;22.40;99.90
7958;DHT22;4024;52.172;5.378;2023-09-07T01:14:54;22.40;99.90
7958;DHT22;4024;52.172;5.378;2023-09-07T01:17:21;22.40;99.90
7958;DHT22;4024;52.172;5.378;2023-09-07T01:19:48;22.30;99.90
7958;DHT22;4024;52.172;5.378;2023-09-07T01:22:18;22.30;99.90
7958;DHT22;4024;52.172;5.378;2023-09-07T01:24:45;22.30;99.90
7958;DHT22;4024;52.172;5.378;2023-09-07T01:27:11;22.30;99.90
7958;DHT22;4024;52.172;5.378;2023-09-07T01:29:39;22.30;99.90
7958;DHT22;4024;52.172;5.378;2023-09-07T01:32:05;22.30;99.90
7958;DHT22;4024;52.172;5.378;2023-09-07T01:34:31;22.20;99.90
7958;DHT22;4024;52.172;5.378;2023-09-07T01:36:57;22.20;99.90
7958;DHT22;4024;52.172;5.378;2023-09-07T01:39:22;22.20;99.90
7958;DHT22;4024;52.172;5.378;2023-09-07T01:41:48;22.20;99.90
7958;DHT22;4024;52.172;5.378;2023-09-07T01:44:14;22.20;99.90
7958;DHT22;4024;52.172;5.378;2023-09-07T01:46:39;22.20;99.90
7958;DHT22;4024;52.172;5.378;2023-09-07T01:49:05;22.10;99.90
7958;DHT22;4024;52.172;5.378;2023-09-07T01:51:30;22.10;99.90
7958;DHT22;4024;52.172;5.378;2023-09-07T01:53:56;22.10;99.90
7958;DHT22;4024;52.172;5.378;2023-09-07T01:56:22;22.10;99.90
7958;DHT22;4024;52.172;5.378;2023-09-07T01:58:48;22.10;99.90
7958;DHT22;4024;52.172;5.378;2023-09-07T02:01:27;22.10;99.90
7958;DHT22;4024;52.172;5.378;2023-09-07T02:03:55;22.00;99.90
7958;DHT22;4024;52.172;5.378;2023-09-07T02:06:20;22.10;99.90
7958;DHT22;4024;52.172;5.378;2023-09-07T02:08:46;22.00;99.90
7958;DHT22;4024;52.172;5.378;2023-09-07T02:11:12;22.00;99.90
7958;DHT22;4024;52.172;5.378;2023-09-07T02:13:38;22.00;99.90
7958;DHT22;4024;52.172;5.378;2023-09-07T02:16:06;21.90;99.90
7958;DHT22;4024;52.172;5.378;2023-09-07T02:18:32;21.90;99.90
7958;DHT22;4024;52.172;5.378;2023-09-07T02:21:05;21.90;99.90
7958;DHT22;4024;52.172;5.378;2023-09-07T02:23:32;21.90;99.90
7958;DHT22;4024;52.172;5.378;2023-09-07T02:25:59;21.90;99.90
7958;DHT22;4024;52.172;5.378;2023-09-07T02:28:25;21.90;99.90
7958;DHT22;4024;52.172;5.378;2023-09-07T02:30:54;21.90;99.90
7958;DHT22;4024;52.172;5.378;2023-09-07T02:33:19;21.80;99.90
7958;DHT22;4024;52.172;5.378;2023-09-07T02:35:47;21.90;99.90
7958;DHT22;4024;52.172;5.378;2023-09-07T02:38:13;21.80;99.90
7958;DHT22;4024;52.172;5.378;2023-09-07T02:40:45;21.80;99.90
7958;DHT22;4024;52.172;5.378;2023-09-07T02:43:11;21.80;99.90
7958;DHT22;4024;52.172;5.378;2023-09-07T02:45:37;21.80;99.90
7958;DHT22;4024;52.172;5.378;2023-09-07T02:48:04;21.80;99.90
7958;DHT22;4024;52.172;5.378;2023-09-07T02:50:33;21.70;99.90
7958;DHT22;4024;52.172;5.378;2023-09-07T02:53:00;21.70;99.90
7958;DHT22;4024;52.172;5.378;2023-09-07T02:55:28;21.60;99.90
7958;DHT22;4024;52.172;5.378;2023-09-07T02:57:55;21.60;99.90
7958;DHT22;4024;52.172;5.378;2023-09-07T03:00:21;21.60;99.90
7958;DHT22;4024;52.172;5.378;2023-09-07T03:02:48;21.60;99.90
7958;DHT22;4024;52.172;5.378;2023-09-07T03:05:15;21.60;99.90
7958;DHT22;4024;52.172;5.378;2023-09-07T03:07:40;21.60;99.90
7958;DHT22;4024;52.172;5.378;2023-09-07T03:10:06;21.50;99.90
7958;DHT22;4024;52.172;5.378;2023-09-07T03:12:32;21.50;99.90
7958;DHT22;4024;52.172;5.378;2023-09-07T03:14:57;21.50;99.90
7958;DHT22;4024;52.172;5.378;2023-09-07T03:17:23;21.40;99.90
7958;DHT22;4024;52.172;5.378;2023-09-07T03:19:49;21.40;99.90
7958;DHT22;4024;52.172;5.378;2023-09-07T03:22:15;21.40;99.90
7958;DHT22;4024;52.172;5.378;2023-09-07T03:24:41;21.40;99.90
7958;DHT22;4024;52.172;5.378;2023-09-07T03:27:07;21.30;99.90
7958;DHT22;4024;52.172;5.378;2023-09-07T03:29:32;21.30;99.90
7958;DHT22;4024;52.172;5.378;2023-09-07T03:32:01;21.20;99.90
7958;DHT22;4024;52.172;5.378;2023-09-07T03:34:27;21.20;99.90
7958;DHT22;4024;52.172;5.378;2023-09-07T03:36:53;21.10;99.90
7958;DHT22;4024;52.172;5.378;2023-09-07T03:39:19;21.10;99.90
7958;DHT22;4024;52.172;5.378;2023-09-07T03:41:46;21.10;99.90
7958;DHT22;4024;52.172;5.378;2023-09-07T03:44:12;21.00;99.90
7958;DHT22;4024;52.172;5.378;2023-09-07T03:46:38;21.00;99.90
7958;DHT22;4024;52.172;5.378;2023-09-07T03:49:04;21.00;99.90
7958;DHT22;4024;52.172;5.378;2023-09-07T03:51:29;21.00;99.90
7958;DHT22;4024;52.172;5.378;2023-09-07T03:53:55;20.90;99.90
7958;DHT22;4024;52.172;5.378;2023-09-07T03:56:20;20.90;99.90
7958;DHT22;4024;52.172;5.378;2023-09-07T03:58:46;20.80;99.90
7958;DHT22;4024;52.172;5.378;2023-09-07T04:01:14;20.80;99.90
7958;DHT22;4024;52.172;5.378;2023-09-07T04:03:40;20.80;99.90
7958;DHT22;4024;52.172;5.378;2023-09-07T04:06:06;20.80;99.90
7958;DHT22;4024;52.172;5.378;2023-09-07T04:08:32;20.70;99.90
7958;DHT22;4024;52.172;5.378;2023-09-07T04:10:57;20.70;99.90
7958;DHT22;4024;52.172;5.378;2023-09-07T04:13:23;20.70;99.90
7958;DHT22;4024;52.172;5.378;2023-09-07T04:15:49;20.70;99.90
7958;DHT22;4024;52.172;5.378;2023-09-07T04:18:15;20.60;99.90
7958;DHT22;4024;52.172;5.378;2023-09-07T04:20:42;20.60;99.90
7958;DHT22;4024;52.172;5.378;2023-09-07T04:23:08;20.60;99.90
7958;DHT22;4024;52.172;5.378;2023-09-07T04:25:33;20.60;99.90
7958;DHT22;4024;52.172;5.378;2023-09-07T04:27:59;20.50;99.90
7958;DHT22;4024;52.172;5.378;2023-09-07T04:30:25;20.50;99.90
7958;DHT22;4024;52.172;5.378;2023-09-07T04:32:51;20.50;99.90
7958;DHT22;4024;52.172;5.378;2023-09-07T04:35:17;20.40;99.90
7958;DHT22;4024;52.172;5.378;2023-09-07T04:37:43;20.40;99.90
7958;DHT22;4024;52.172;5.378;2023-09-07T04:40:09;20.30;99.90
7958;DHT22;4024;52.172;5.378;2023-09-07T04:42:35;20.30;99.90
7958;DHT22;4024;52.172;5.378;2023-09-07T04:45:01;20.30;99.90
7958;DHT22;4024;52.172;5.378;2023-09-07T04:47:28;20.20;99.90
7958;DHT22;4024;52.172;5.378;2023-09-07T04:49:54;20.30;99.90
7958;DHT22;4024;52.172;5.378;2023-09-07T04:52:19;20.20;99.90
7958;DHT22;4024;52.172;5.378;2023-09-07T04:54:45;20.30;99.90
7958;DHT22;4024;52.172;5.378;2023-09-07T04:57:12;20.20;99.90
7958;DHT22;4024;52.172;5.378;2023-09-07T04:59:37;20.20;99.90
7958;DHT22;4024;52.172;5.378;2023-09-07T05:02:03;20.20;99.90
7958;DHT22;4024;52.172;5.378;2023-09-07T05:04:29;20.10;99.90
7958;DHT22;4024;52.172;5.378;2023-09-07T05:06:56;20.20;99.90
7958;DHT22;4024;52.172;5.378;2023-09-07T05:09:22;20.20;99.90
7958;DHT22;4024;52.172;5.378;2023-09-07T05:11:49;20.10;99.90
7958;DHT22;4024;52.172;5.378;2023-09-07T05:14:14;20.10;99.90
7958;DHT22;4024;52.172;5.378;2023-09-07T05:16:42;20.10;99.90
7958;DHT22;4024;52.172;5.378;2023-09-07T05:19:09;20.10;99.90
7958;DHT22;4024;52.172;5.378;2023-09-07T05:21:34;20.10;99.90
7958;DHT22;4024;52.172;5.378;2023-09-07T05:24:00;20.10;99.90
7958;DHT22;4024;52.172;5.378;2023-09-07T05:26:25;20.10;99.90
7958;DHT22;4024;52.172;5.378;2023-09-07T05:28:51;20.10;99.90
7958;DHT22;4024;52.172;5.378;2023-09-07T05:31:17;20.10;99.90
7958;DHT22;4024;52.172;5.378;2023-09-07T05:33:42;20.10;99.90
7958;DHT22;4024;52.172;5.378;2023-09-07T05:36:08;20.10;99.90
7958;DHT22;4024;52.172;5.378;2023-09-07T05:38:34;20.20;99.90
7958;DHT22;4024;52.172;5.378;2023-09-07T05:41:00;20.20;99.90
7958;DHT22;4024;52.172;5.378;2023-09-07T05:43:25;20.20;99.90
7958;DHT22;4024;52.172;5.378;2023-09-07T05:45:51;20.20;99.90
7958;DHT22;4024;52.172;5.378;2023-09-07T05:48:17;20.30;99.90
7958;DHT22;4024;52.172;5.378;2023-09-07T05:50:42;20.30;99.90
7958;DHT22;4024;52.172;5.378;2023-09-07T05:53:08;20.30;99.90
7958;DHT22;4024;52.172;5.378;2023-09-07T05:55:34;20.30;99.90
7958;DHT22;4024;52.172;5.378;2023-09-07T05:58:03;20.40;99.90
7958;DHT22;4024;52.172;5.378;2023-09-07T06:00:29;20.40;99.90
7958;DHT22;4024;52.172;5.378;2023-09-07T06:02:54;20.40;99.90
7958;DHT22;4024;52.172;5.378;2023-09-07T06:05:20;20.40;99.90
7958;DHT22;4024;52.172;5.378;2023-09-07T06:07:46;20.50;99.90
7958;DHT22;4024;52.172;5.378;2023-09-07T06:10:12;20.50;99.90
7958;DHT22;4024;52.172;5.378;2023-09-07T06:12:38;20.50;99.90
7958;DHT22;4024;52.172;5.378;2023-09-07T06:15:04;20.60;99.90
7958;DHT22;4024;52.172;5.378;2023-09-07T06:17:29;20.60;99.90
7958;DHT22;4024;52.172;5.378;2023-09-07T06:19:56;20.60;99.90
7958;DHT22;4024;52.172;5.378;2023-09-07T06:22:22;20.60;99.90
7958;DHT22;4024;52.172;5.378;2023-09-07T06:24:47;20.70;99.90
7958;DHT22;4024;52.172;5.378;2023-09-07T06:27:14;20.70;99.90
7958;DHT22;4024;52.172;5.378;2023-09-07T06:29:39;20.80;99.90
7958;DHT22;4024;52.172;5.378;2023-09-07T06:32:05;20.80;99.90
7958;DHT22;4024;52.172;5.378;2023-09-07T06:34:30;20.80;99.90
7958;DHT22;4024;52.172;5.378;2023-09-07T06:36:56;20.90;99.90
7958;DHT22;4024;52.172;5.378;2023-09-07T06:39:21;20.90;99.90
7958;DHT22;4024;52.172;5.378;2023-09-07T06:41:47;20.90;99.90
7958;DHT22;4024;52.172;5.378;2023-09-07T06:44:13;20.90;99.90
7958;DHT22;4024;52.172;5.378;2023-09-07T06:46:39;21.00;99.90
7958;DHT22;4024;52.172;5.378;2023-09-07T06:49:05;21.10;99.90
7958;DHT22;4024;52.172;5.378;2023-09-07T06:51:31;21.10;99.90
7958;DHT22;4024;52.172;5.378;2023-09-07T06:53:57;21.10;99.90
7958;DHT22;4024;52.172;5.378;2023-09-07T06:56:22;21.20;99.90
7958;DHT22;4024;52.172;5.378;2023-09-07T06:58:48;21.20;99.90
7958;DHT22;4024;52.172;5.378;2023-09-07T07:01:14;21.30;99.90
7958;DHT22;4024;52.172;5.378;2023-09-07T07:03:40;21.30;99.90
7958;DHT22;4024;52.172;5.378;2023-09-07T07:06:06;21.30;99.90
7958;DHT22;4024;52.172;5.378;2023-09-07T07:08:32;21.40;99.90
7958;DHT22;4024;52.172;5.378;2023-09-07T07:10:57;21.40;99.90
7958;DHT22;4024;52.172;5.378;2023-09-07T07:13:23;21.50;99.90
7958;DHT22;4024;52.172;5.378;2023-09-07T07:15:48;21.50;99.90
7958;DHT22;4024;52.172;5.378;2023-09-07T07:18:14;21.60;99.90
7958;DHT22;4024;52.172;5.378;2023-09-07T07:20:41;21.60;99.90
7958;DHT22;4024;52.172;5.378;2023-09-07T07:23:07;21.70;99.90
7958;DHT22;4024;52.172;5.378;2023-09-07T07:25:33;21.70;99.90
7958;DHT22;4024;52.172;5.378;2023-09-07T07:28:03;21.70;99.90
7958;DHT22;4024;52.172;5.378;2023-09-07T07:30:36;21.80;99.90
7958;DHT22;4024;52.172;5.378;2023-09-07T07:33:03;21.80;99.90
7958;DHT22;4024;52.172;5.378;2023-09-07T07:35:32;21.90;99.90
7958;DHT22;4024;52.172;5.378;2023-09-07T07:37:57;21.90;99.90
7958;DHT22;4024;52.172;5.378;2023-09-07T07:40:23;22.00;99.90
7958;DHT22;4024;52.172;5.378;2023-09-07T07:42:51;22.10;99.90
7958;DHT22;4024;52.172;5.378;2023-09-07T07:45:17;22.10;99.90
7958;DHT22;4024;52.172;5.378;2023-09-07T07:47:49;22.20;99.90
7958;DHT22;4024;52.172;5.378;2023-09-07T07:50:15;22.30;99.90
7958;DHT22;4024;52.172;5.378;2023-09-07T07:52:41;22.30;99.90
7958;DHT22;4024;52.172;5.378;2023-09-07T07:55:07;22.40;99.90
7958;DHT22;4024;52.172;5.378;2023-09-07T07:57:33;22.50;99.90
7958;DHT22;4024;52.172;5.378;2023-09-07T07:59:59;22.50;99.90
7958;DHT22;4024;52.172;5.378;2023-09-07T08:02:24;22.60;99.90
7958;DHT22;4024;52.172;5.378;2023-09-07T08:04:50;22.70;99.90
7958;DHT22;4024;52.172;5.378;2023-09-07T08:07:16;22.70;99.90
7958;DHT22;4024;52.172;5.378;2023-09-07T08:09:42;22.70;99.90
7958;DHT22;4024;52.172;5.378;2023-09-07T08:12:07;22.80;99.90
7958;DHT22;4024;52.172;5.378;2023-09-07T08:14:33;23.00;99.90
7958;DHT22;4024;52.172;5.378;2023-09-07T08:16:59;23.00;99.90
7958;DHT22;4024;52.172;5.378;2023-09-07T08:19:24;23.10;99.90
7958;DHT22;4024;52.172;5.378;2023-09-07T08:21:50;23.10;99.90
7958;DHT22;4024;52.172;5.378;2023-09-07T08:24:16;23.20;99.90
7958;DHT22;4024;52.172;5.378;2023-09-07T08:26:43;23.30;99.90
7958;DHT22;4024;52.172;5.378;2023-09-07T08:29:09;23.30;99.90
7958;DHT22;4024;52.172;5.378;2023-09-07T08:31:36;23.40;99.90
7958;DHT22;4024;52.172;5.378;2023-09-07T08:34:05;23.50;99.90
7958;DHT22;4024;52.172;5.378;2023-09-07T08:36:31;23.50;99.90
7958;DHT22;4024;52.172;5.378;2023-09-07T08:38:59;23.60;99.90
7958;DHT22;4024;52.172;5.378;2023-09-07T08:41:26;23.60;99.90
7958;DHT22;4024;52.172;5.378;2023-09-07T08:43:54;23.80;99.90
7958;DHT22;4024;52.172;5.378;2023-09-07T08:46:20;23.80;99.90
7958;DHT22;4024;52.172;5.378;2023-09-07T08:48:50;23.90;99.90
7958;DHT22;4024;52.172;5.378;2023-09-07T08:51:18;24.00;99.90
7958;DHT22;4024;52.172;5.378;2023-09-07T08:53:44;24.10;99.90
7958;DHT22;4024;52.172;5.378;2023-09-07T08:56:12;24.10;99.90
7958;DHT22;4024;52.172;5.378;2023-09-07T08:58:38;24.10;99.90
7958;DHT22;4024;52.172;5.378;2023-09-07T09:01:05;24.30;99.90
7958;DHT22;4024;52.172;5.378;2023-09-07T09:03:31;24.40;99.90
7958;DHT22;4024;52.172;5.378;2023-09-07T09:05:57;24.50;99.90
7958;DHT22;4024;52.172;5.378;2023-09-07T09:08:23;24.50;99.90
7958;DHT22;4024;52.172;5.378;2023-09-07T09:10:59;24.60;99.90
7958;DHT22;4024;52.172;5.378;2023-09-07T09:13:32;24.70;99.90
7958;DHT22;4024;52.172;5.378;2023-09-07T09:16:01;24.80;99.90
7958;DHT22;4024;52.172;5.378;2023-09-07T09:18:27;24.80;99.90
7958;DHT22;4024;52.172;5.378;2023-09-07T09:20:56;25.00;99.90
7958;DHT22;4024;52.172;5.378;2023-09-07T09:23:24;25.10;99.90
7958;DHT22;4024;52.172;5.378;2023-09-07T09:25:50;25.10;99.90
7958;DHT22;4024;52.172;5.378;2023-09-07T09:28:16;25.20;99.90
7958;DHT22;4024;52.172;5.378;2023-09-07T09:30:42;25.30;99.90
7958;DHT22;4024;52.172;5.378;2023-09-07T09:33:11;25.40;99.90
7958;DHT22;4024;52.172;5.378;2023-09-07T09:35:37;25.50;99.90
7958;DHT22;4024;52.172;5.378;2023-09-07T09:38:06;25.50;99.90
7958;DHT22;4024;52.172;5.378;2023-09-07T09:40:33;25.60;99.90
7958;DHT22;4024;52.172;5.378;2023-09-07T09:43:02;25.70;99.90
7958;DHT22;4024;52.172;5.378;2023-09-07T09:45:28;25.80;99.90
7958;DHT22;4024;52.172;5.378;2023-09-07T09:47:54;25.80;99.90
7958;DHT22;4024;52.172;5.378;2023-09-07T09:50:22;26.00;99.90
7958;DHT22;4024;52.172;5.378;2023-09-07T09:52:48;26.00;99.90
7958;DHT22;4024;52.172;5.378;2023-09-07T09:55:15;26.10;99.90
7958;DHT22;4024;52.172;5.378;2023-09-07T09:57:41;26.20;99.90
7958;DHT22;4024;52.172;5.378;2023-09-07T10:00:08;26.20;99.90
7958;DHT22;4024;52.172;5.378;2023-09-07T10:02:44;26.30;99.90
7958;DHT22;4024;52.172;5.378;2023-09-07T10:05:11;26.30;99.90
7958;DHT22;4024;52.172;5.378;2023-09-07T10:07:47;26.40;99.90
7958;DHT22;4024;52.172;5.378;2023-09-07T10:10:14;26.50;99.90
7958;DHT22;4024;52.172;5.378;2023-09-07T10:12:41;26.60;99.90
7958;DHT22;4024;52.172;5.378;2023-09-07T10:15:19;26.60;99.90
7958;DHT22;4024;52.172;5.378;2023-09-07T10:17:45;26.70;99.90
7958;DHT22;4024;52.172;5.378;2023-09-07T10:20:11;26.80;99.90
7958;DHT22;4024;52.172;5.378;2023-09-07T10:22:37;26.80;99.90
7958;DHT22;4024;52.172;5.378;2023-09-07T10:25:03;26.90;99.90
7958;DHT22;4024;52.172;5.378;2023-09-07T10:27:36;26.90;99.90
7958;DHT22;4024;52.172;5.378;2023-09-07T10:30:09;27.00;99.90
7958;DHT22;4024;52.172;5.378;2023-09-07T10:32:39;27.10;99.90
7958;DHT22;4024;52.172;5.378;2023-09-07T10:35:26;27.20;99.90
7958;DHT22;4024;52.172;5.378;2023-09-07T10:37:54;27.30;99.90
7958;DHT22;4024;52.172;5.378;2023-09-07T10:40:20;27.30;99.90
7958;DHT22;4024;52.172;5.378;2023-09-07T10:42:47;27.40;99.90
7958;DHT22;4024;52.172;5.378;2023-09-07T10:45:14;27.50;99.90
7958;DHT22;4024;52.172;5.378;2023-09-07T10:47:43;27.60;99.90
7958;DHT22;4024;52.172;5.378;2023-09-07T10:50:13;27.60;99.90
7958;DHT22;4024;52.172;5.378;2023-09-07T10:52:42;27.60;99.90
7958;DHT22;4024;52.172;5.378;2023-09-07T10:55:08;27.70;99.90
7958;DHT22;4024;52.172;5.378;2023-09-07T10:57:46;27.80;99.90
7958;DHT22;4024;52.172;5.378;2023-09-07T11:00:13;27.80;99.90
7958;DHT22;4024;52.172;5.378;2023-09-07T11:02:40;27.90;99.90
7958;DHT22;4024;52.172;5.378;2023-09-07T11:05:06;28.00;99.90
7958;DHT22;4024;52.172;5.378;2023-09-07T11:07:33;28.00;99.90
7958;DHT22;4024;52.172;5.378;2023-09-07T11:09:59;28.10;99.90
7958;DHT22;4024;52.172;5.378;2023-09-07T11:12:24;28.20;99.90
7958;DHT22;4024;52.172;5.378;2023-09-07T11:14:51;28.20;99.90
7958;DHT22;4024;52.172;5.378;2023-09-07T11:17:17;28.30;99.90
7958;DHT22;4024;52.172;5.378;2023-09-07T11:19:43;28.30;99.90
7958;DHT22;4024;52.172;5.378;2023-09-07T11:22:12;28.40;99.90
7958;DHT22;4024;52.172;5.378;2023-09-07T11:24:39;28.50;99.90
7958;DHT22;4024;52.172;5.378;2023-09-07T11:27:05;28.50;99.90
7958;DHT22;4024;52.172;5.378;2023-09-07T11:29:31;28.60;99.90
7958;DHT22;4024;52.172;5.378;2023-09-07T11:32:10;28.60;99.90
7958;DHT22;4024;52.172;5.378;2023-09-07T11:34:47;28.70;99.90
7958;DHT22;4024;52.172;5.378;2023-09-07T11:37:13;28.80;99.90
7958;DHT22;4024;52.172;5.378;2023-09-07T11:39:39;28.80;99.90
7958;DHT22;4024;52.172;5.378;2023-09-07T11:42:04;28.90;99.90
7958;DHT22;4024;52.172;5.378;2023-09-07T11:44:30;29.00;99.90
7958;DHT22;4024;52.172;5.378;2023-09-07T11:46:55;29.00;99.90
7958;DHT22;4024;52.172;5.378;2023-09-07T11:49:21;29.20;99.90
7958;DHT22;4024;52.172;5.378;2023-09-07T11:51:47;29.20;99.90
7958;DHT22;4024;52.172;5.378;2023-09-07T11:54:13;29.20;99.90
7958;DHT22;4024;52.172;5.378;2023-09-07T11:56:38;29.30;99.90
7958;DHT22;4024;52.172;5.378;2023-09-07T11:59:08;29.30;99.90
7958;DHT22;4024;52.172;5.378;2023-09-07T12:01:34;29.40;99.90
7958;DHT22;4024;52.172;5.378;2023-09-07T12:04:00;29.50;99.90
7958;DHT22;4024;52.172;5.378;2023-09-07T12:06:26;29.50;99.90
7958;DHT22;4024;52.172;5.378;2023-09-07T12:09:18;29.60;99.90
7958;DHT22;4024;52.172;5.378;2023-09-07T12:11:44;29.60;99.90
7958;DHT22;4024;52.172;5.378;2023-09-07T12:14:09;29.70;99.90
7958;DHT22;4024;52.172;5.378;2023-09-07T12:16:35;29.70;99.90
7958;DHT22;4024;52.172;5.378;2023-09-07T12:19:00;29.80;99.90
7958;DHT22;4024;52.172;5.378;2023-09-07T12:21:26;29.80;99.90
7958;DHT22;4024;52.172;5.378;2023-09-07T12:23:51;29.90;99.90
7958;DHT22;4024;52.172;5.378;2023-09-07T12:26:17;29.90;99.90
7958;DHT22;4024;52.172;5.378;2023-09-07T12:28:44;29.90;99.90
7958;DHT22;4024;52.172;5.378;2023-09-07T12:31:10;30.00;99.90
7958;DHT22;4024;52.172;5.378;2023-09-07T12:33:37;30.10;99.90
7958;DHT22;4024;52.172;5.378;2023-09-07T12:36:02;30.10;99.90
7958;DHT22;4024;52.172;5.378;2023-09-07T12:38:28;30.10;99.90
7958;DHT22;4024;52.172;5.378;2023-09-07T12:40:57;30.10;99.90
7958;DHT22;4024;52.172;5.378;2023-09-07T12:43:23;30.20;99.90
7958;DHT22;4024;52.172;5.378;2023-09-07T12:45:50;30.20;99.90
7958;DHT22;4024;52.172;5.378;2023-09-07T12:48:16;30.20;99.90
7958;DHT22;4024;52.172;5.378;2023-09-07T12:50:41;30.30;99.90
7958;DHT22;4024;52.172;5.378;2023-09-07T12:53:08;30.40;99.90
7958;DHT22;4024;52.172;5.378;2023-09-07T12:55:34;30.40;99.00
7958;DHT22;4024;52.172;5.378;2023-09-07T12:57:59;30.40;98.80
7958;DHT22;4024;52.172;5.378;2023-09-07T13:00:26;30.50;98.70
7958;DHT22;4024;52.172;5.378;2023-09-07T13:02:51;30.60;98.40
7958;DHT22;4024;52.172;5.378;2023-09-07T13:05:17;30.70;98.60
7958;DHT22;4024;52.172;5.378;2023-09-07T13:07:42;30.70;99.30
7958;DHT22;4024;52.172;5.378;2023-09-07T13:10:09;30.70;98.60
7958;DHT22;4024;52.172;5.378;2023-09-07T13:12:36;30.80;98.00
7958;DHT22;4024;52.172;5.378;2023-09-07T13:15:02;30.80;98.00
7958;DHT22;4024;52.172;5.378;2023-09-07T13:17:28;30.80;97.50
7958;DHT22;4024;52.172;5.378;2023-09-07T13:19:53;30.90;97.30
7958;DHT22;4024;52.172;5.378;2023-09-07T13:22:19;31.00;97.90
7958;DHT22;4024;52.172;5.378;2023-09-07T13:24:44;31.00;97.30
7958;DHT22;4024;52.172;5.378;2023-09-07T13:27:10;31.00;97.40
7958;DHT22;4024;52.172;5.378;2023-09-07T13:29:36;31.00;97.80
7958;DHT22;4024;52.172;5.378;2023-09-07T13:32:02;31.00;97.30
7958;DHT22;4024;52.172;5.378;2023-09-07T13:34:28;31.10;97.70
7958;DHT22;4024;52.172;5.378;2023-09-07T13:36:54;31.20;98.40
7958;DHT22;4024;52.172;5.378;2023-09-07T13:39:20;31.20;97.60
7958;DHT22;4024;52.172;5.378;2023-09-07T13:41:46;31.20;97.70
7958;DHT22;4024;52.172;5.378;2023-09-07T13:44:14;31.20;97.80
7958;DHT22;4024;52.172;5.378;2023-09-07T13:46:39;31.20;97.00
7958;DHT22;4024;52.172;5.378;2023-09-07T13:49:05;31.30;96.90
7958;DHT22;4024;52.172;5.378;2023-09-07T13:51:30;31.40;97.40
7958;DHT22;4024;52.172;5.378;2023-09-07T13:54:04;31.40;96.70
7958;DHT22;4024;52.172;5.378;2023-09-07T13:56:30;31.40;96.40
7958;DHT22;4024;52.172;5.378;2023-09-07T13:58:56;31.40;96.90
7958;DHT22;4024;52.172;5.378;2023-09-07T14:01:21;31.40;96.00
7958;DHT22;4024;52.172;5.378;2023-09-07T14:03:49;31.50;96.30
7958;DHT22;4024;52.172;5.378;2023-09-07T14:06:14;31.50;95.00
7958;DHT22;4024;52.172;5.378;2023-09-07T14:08:40;31.50;95.60
7958;DHT22;4024;52.172;5.378;2023-09-07T14:11:05;31.50;95.30
7958;DHT22;4024;52.172;5.378;2023-09-07T14:13:32;31.50;95.20
7958;DHT22;4024;52.172;5.378;2023-09-07T14:16:00;31.50;94.10
7958;DHT22;4024;52.172;5.378;2023-09-07T14:18:26;31.60;94.80
7958;DHT22;4024;52.172;5.378;2023-09-07T14:20:51;31.60;94.60
7958;DHT22;4024;52.172;5.378;2023-09-07T14:23:17;31.70;94.30
7958;DHT22;4024;52.172;5.378;2023-09-07T14:25:46;31.70;93.90
7958;DHT22;4024;52.172;5.378;2023-09-07T14:28:13;31.70;93.00
7958;DHT22;4024;52.172;5.378;2023-09-07T14:30:39;31.70;92.50
7958;DHT22;4024;52.172;5.378;2023-09-07T14:33:05;31.70;92.30
7958;DHT22;4024;52.172;5.378;2023-09-07T14:35:31;31.80;92.60
7958;DHT22;4024;52.172;5.378;2023-09-07T14:37:57;31.80;92.70
7958;DHT22;4024;52.172;5.378;2023-09-07T14:40:22;31.80;93.30
7958;DHT22;4024;52.172;5.378;2023-09-07T14:42:50;31.80;93.10
7958;DHT22;4024;52.172;5.378;2023-09-07T14:45:16;31.90;93.70
7958;DHT22;4024;52.172;5.378;2023-09-07T14:47:42;31.90;93.50
7958;DHT22;4024;52.172;5.378;2023-09-07T14:50:08;31.90;92.80
7958;DHT22;4024;52.172;5.378;2023-09-07T14:52:34;31.90;92.60
7958;DHT22;4024;52.172;5.378;2023-09-07T14:55:07;31.90;92.70
7958;DHT22;4024;52.172;5.378;2023-09-07T14:57:33;31.90;93.00
7958;DHT22;4024;52.172;5.378;2023-09-07T14:59:59;31.90;92.80
7958;DHT22;4024;52.172;5.378;2023-09-07T15:02:25;31.90;92.30
7958;DHT22;4024;52.172;5.378;2023-09-07T15:04:51;31.90;92.70
7958;DHT22;4024;52.172;5.378;2023-09-07T15:07:17;32.00;93.20
7958;DHT22;4024;52.172;5.378;2023-09-07T15:09:42;32.00;93.70
7958;DHT22;4024;52.172;5.378;2023-09-07T15:12:08;32.10;93.70
7958;DHT22;4024;52.172;5.378;2023-09-07T15:14:34;32.00;93.80
7958;DHT22;4024;52.172;5.378;2023-09-07T15:16:59;32.00;93.90
7958;DHT22;4024;52.172;5.378;2023-09-07T15:19:25;32.00;93.50
7958;DHT22;4024;52.172;5.378;2023-09-07T15:21:51;32.00;93.20
7958;DHT22;4024;52.172;5.378;2023-09-07T15:24:17;32.10;93.50
7958;DHT22;4024;52.172;5.378;2023-09-07T15:26:44;32.10;93.70
7958;DHT22;4024;52.172;5.378;2023-09-07T15:29:11;32.10;93.80
7958;DHT22;4024;52.172;5.378;2023-09-07T15:31:37;32.10;94.30
7958;DHT22;4024;52.172;5.378;2023-09-07T15:34:03;32.10;93.80
7958;DHT22;4024;52.172;5.378;2023-09-07T15:36:29;32.00;93.50
7958;DHT22;4024;52.172;5.378;2023-09-07T15:38:55;32.10;93.80
7958;DHT22;4024;52.172;5.378;2023-09-07T15:41:20;32.10;94.20
7958;DHT22;4024;52.172;5.378;2023-09-07T15:43:46;32.00;95.00
7958;DHT22;4024;52.172;5.378;2023-09-07T15:46:11;32.00;94.80
7958;DHT22;4024;52.172;5.378;2023-09-07T15:48:37;32.00;94.80
7958;DHT22;4024;52.172;5.378;2023-09-07T15:51:07;32.00;94.60
7958;DHT22;4024;52.172;5.378;2023-09-07T15:53:34;32.00;94.70
7958;DHT22;4024;52.172;5.378;2023-09-07T15:56:02;32.00;94.50
7958;DHT22;4024;52.172;5.378;2023-09-07T15:58:29;32.00;95.00